Time;durP1;ratioP1;P1;durP2;ratioP2;P2;SDS_P1;SDS_P2;PMS_P1;PMS_P2;Temp;Humidity;BMP_temperature;BMP_pressure;BME280_temperature;BME280_humidity;BME280_pressure;Samples;Min_cycle;Max_cycle;Signal;HPM_P1;HPM_P2
2023/08/22 00:01:39;;;;;;;10.88;7.12;;;;;;;26.06;53.04;100086.91;7784406;32;37987;-82
2023/08/22 00:05:56;;;;;;;9.85;6.82;;;;;;;26.09;52.88;100090.91;7784549;32;36931;-81
2023/08/22 00:10:14;;;;;;;15.43;6.70;;;;;;;25.98;52.90;100090.72;7784743;32;39216;-81
2023/08/22 00:14:30;;;;;;;11.35;7.12;;;;;;;25.89;53.54;100081.72;7784365;32;41008;-81
2023/08/22 00:18:46;;;;;;;10.60;6.68;;;;;;;25.96;53.04;100081.91;7757500;32;38497;-81
2023/08/22 00:23:06;;;;;;;14.45;7.40;;;;;;;25.95;52.83;100078.28;7739481;32;36653;-81
2023/08/22 00:27:22;;;;;;;11.88;6.82;;;;;;;25.73;53.63;100074.22;7739348;32;39767;-81
2023/08/22 00:31:38;;;;;;;10.05;6.53;;;;;;;25.86;53.18;100077.69;7739210;32;39907;-81
2023/08/22 00:35:55;;;;;;;9.15;6.75;;;;;;;25.70;53.78;100079.75;7739129;32;37799;-81
2023/08/22 00:40:11;;;;;;;9.32;7.03;;;;;;;25.81;53.20;100073.19;7744643;32;37668;-81
2023/08/22 00:44:27;;;;;;;11.98;7.68;;;;;;;25.68;53.61;100080.09;7766449;32;39877;-82
2023/08/22 00:48:43;;;;;;;12.48;7.22;;;;;;;25.62;53.89;100081.59;7765987;32;40859;-80
2023/08/22 00:53:00;;;;;;;10.70;6.93;;;;;;;25.39;54.67;100070.31;7764611;32;38222;-79
2023/08/22 00:57:17;;;;;;;12.95;7.60;;;;;;;25.54;54.33;100083.41;7764397;32;37742;-79
2023/08/22 01:01:33;;;;;;;11.50;7.20;;;;;;;25.26;55.28;100073.25;7765925;32;39098;-79
2023/08/22 01:06:01;;;;;;;10.48;6.72;;;;;;;25.31;55.06;100069.38;7765689;32;40094;-79
2023/08/22 01:10:29;;;;;;;12.60;7.20;;;;;;;25.38;54.65;100080.69;7765711;32;38008;-80
2023/08/22 01:14:51;;;;;;;15.40;7.45;;;;;;;25.48;54.13;100079.31;7765702;32;37762;-79
2023/08/22 01:19:11;;;;;;;12.23;8.20;;;;;;;25.58;53.68;100078.72;7765703;32;39124;-79
2023/08/22 01:23:27;;;;;;;10.18;7.35;;;;;;;25.46;54.30;100076.88;7764423;32;40861;-79
2023/08/22 01:28:02;;;;;;;11.70;7.32;;;;;;;25.33;54.81;100069.81;7764727;32;38755;-79
2023/08/22 01:32:30;;;;;;;11.57;7.15;;;;;;;25.44;54.26;100073.66;7762992;32;38072;-78
2023/08/22 01:36:47;;;;;;;10.77;7.50;;;;;;;25.33;54.80;100072.59;7764176;32;39721;-79
2023/08/22 01:41:04;;;;;;;12.93;7.25;;;;;;;25.26;55.06;100078.03;7764157;32;39993;-79
2023/08/22 01:45:21;;;;;;;9.95;6.93;;;;;;;25.24;55.00;100075.56;7763951;32;37803;-80
2023/08/22 01:49:37;;;;;;;13.02;7.75;;;;;;;25.18;55.22;100071.47;7765340;32;36965;-80
2023/08/22 01:53:53;;;;;;;10.43;7.12;;;;;;;25.07;55.57;100073.19;7765238;32;39103;-79
2023/08/22 01:58:11;;;;;;;10.90;7.95;;;;;;;25.03;55.63;100075.09;7765073;32;40809;-79
2023/08/22 02:02:27;;;;;;;11.12;7.40;;;;;;;25.05;55.58;100078.31;7765079;32;37701;-79
2023/08/22 02:06:44;;;;;;;11.90;7.57;;;;;;;24.96;55.83;100081.31;7764986;32;37725;-79
2023/08/22 02:11:00;;;;;;;9.73;6.75;;;;;;;24.86;55.99;100076.28;7750561;32;39196;-79
2023/08/22 02:15:16;;;;;;;11.20;7.37;;;;;;;24.83;56.11;100082.56;7737926;32;39946;-79
2023/08/22 02:19:33;;;;;;;12.02;7.07;;;;;;;24.74;56.18;100079.97;7737865;32;38676;-79
2023/08/22 02:23:49;;;;;;;13.18;7.40;;;;;;;24.76;56.23;100076.81;7738307;32;37751;-79
2023/08/22 02:28:06;;;;;;;10.57;7.40;;;;;;;24.82;56.01;100069.78;7737738;32;39881;-79
2023/08/22 02:32:22;;;;;;;11.73;7.78;;;;;;;24.60;56.94;100080.44;7743402;32;40913;-79
2023/08/22 02:36:39;;;;;;;11.88;7.93;;;;;;;24.77;56.31;100075.66;7764589;32;38767;-79
2023/08/22 02:40:55;;;;;;;11.10;7.65;;;;;;;24.80;56.17;100077.72;7764232;32;37118;-79
2023/08/22 02:45:12;;;;;;;10.73;7.55;;;;;;;24.71;56.52;100069.53;7764549;32;39114;-79
2023/08/22 02:49:28;;;;;;;10.57;7.47;;;;;;;24.72;56.45;100083.12;7762905;32;40004;-79
2023/08/22 02:53:44;;;;;;;11.10;8.10;;;;;;;24.64;56.73;100069.38;7764247;32;37642;-79
2023/08/22 02:58:01;;;;;;;9.63;6.60;;;;;;;24.65;56.63;100077.37;7764354;32;36594;-80
2023/08/22 03:02:17;;;;;;;10.98;7.35;;;;;;;24.84;56.05;100070.25;7764530;32;37532;-80
2023/08/22 03:06:33;;;;;;;11.23;7.40;;;;;;;24.54;56.96;100077.13;7763930;32;39963;-79
2023/08/22 03:10:50;;;;;;;10.77;7.40;;;;;;;24.38;57.37;100065.91;7763929;32;37938;-79
2023/08/22 03:15:06;;;;;;;10.68;7.55;;;;;;;24.57;56.44;100069.19;7763488;32;37146;-78
2023/08/22 03:19:23;;;;;;;10.50;7.03;;;;;;;24.56;56.42;100068.41;7762596;32;38791;-79
2023/08/22 03:23:39;;;;;;;10.18;7.22;;;;;;;24.29;57.33;100070.06;7761443;32;40621;-79
2023/08/22 03:27:55;;;;;;;12.37;7.03;;;;;;;24.38;56.88;100063.13;7736833;32;37974;-79
2023/08/22 03:32:11;;;;;;;10.52;7.28;;;;;;;24.44;56.61;100068.44;7736380;32;36967;-79
2023/08/22 03:36:28;;;;;;;11.65;7.25;;;;;;;24.57;56.03;100058.84;7736826;32;39181;-79
2023/08/22 03:40:44;;;;;;;11.45;7.72;;;;;;;24.36;56.58;100064.66;7736178;32;39968;-79
2023/08/22 03:45:00;;;;;;;12.50;7.70;;;;;;;24.31;56.93;100067.72;7736008;32;38727;-79
2023/08/22 03:49:17;;;;;;;12.55;7.53;;;;;;;24.32;57.02;100061.00;7735905;32;36719;-79
2023/08/22 03:53:34;;;;;;;15.10;8.02;;;;;;;24.21;57.47;100073.81;7738063;32;39277;-79
2023/08/22 03:57:51;;;;;;;14.70;8.32;;;;;;;24.18;57.75;100070.56;7739609;32;40847;-79
2023/08/22 04:02:07;;;;;;;11.80;8.23;;;;;;;24.31;57.32;100076.88;7739550;32;37906;-79
2023/08/22 04:06:25;;;;;;;10.15;7.20;;;;;;;24.25;57.49;100074.69;7739438;32;37801;-79
2023/08/22 04:10:41;;;;;;;10.68;7.28;;;;;;;24.31;57.35;100074.09;7742043;32;39205;-79
2023/08/22 04:14:57;;;;;;;10.40;7.72;;;;;;;24.41;56.87;100071.94;7764887;32;39852;-79
2023/08/22 04:19:14;;;;;;;10.90;7.45;;;;;;;24.23;57.39;100075.06;7766271;32;38702;-79
2023/08/22 04:23:30;;;;;;;12.52;8.02;;;;;;;24.19;57.58;100079.72;7765159;32;36920;-79
2023/08/22 04:27:47;;;;;;;12.30;7.22;;;;;;;24.12;57.99;100080.34;7766187;32;38821;-79
2023/08/22 04:32:04;;;;;;;12.30;7.22;;;;;;;24.17;57.97;100082.88;7766144;32;39907;-79
2023/08/22 04:36:20;;;;;;;12.32;8.23;;;;;;;24.24;57.89;100084.25;7766192;32;38992;-79
2023/08/22 04:40:36;;;;;;;10.90;7.82;;;;;;;24.24;58.19;100084.25;7766349;32;37608;-79
2023/08/22 04:44:53;;;;;;;11.85;7.87;;;;;;;24.19;58.54;100088.09;7766133;32;38967;-79
2023/08/22 04:49:09;;;;;;;14.68;7.78;;;;;;;24.16;58.86;100095.19;7764000;32;40879;-79
2023/08/22 04:53:26;;;;;;;13.65;8.13;;;;;;;24.26;58.73;100088.28;7766133;32;37932;-79
2023/08/22 04:57:42;;;;;;;10.88;7.85;;;;;;;24.17;59.22;100104.34;7765944;32;37711;-79
2023/08/22 05:02:00;;;;;;;11.32;7.07;;;;;;;24.34;58.99;100103.22;7757109;32;39668;-70
2023/08/22 05:06:16;;;;;;;11.82;8.13;;;;;;;24.50;58.68;100106.00;7763794;32;40019;-69
2023/08/22 05:10:32;;;;;;;11.80;7.60;;;;;;;24.52;58.40;100100.88;7765680;32;37586;-69
2023/08/22 05:14:49;;;;;;;10.82;7.45;;;;;;;24.58;58.19;100107.84;7765669;32;37803;-70
2023/08/22 05:19:05;;;;;;;11.23;7.50;;;;;;;24.60;58.63;100102.72;7766036;32;39250;-69
2023/08/22 05:23:22;;;;;;;12.18;7.75;;;;;;;24.76;58.10;100102.72;7765471;32;40874;-70
2023/08/22 05:27:38;;;;;;;12.68;7.72;;;;;;;24.96;57.67;100113.94;7765302;32;37991;-70
2023/08/22 05:31:55;;;;;;;11.32;6.65;;;;;;;25.05;57.81;100106.22;7765551;32;37555;-71
2023/08/22 05:36:11;;;;;;;13.77;8.23;;;;;;;25.20;57.03;100108.16;7760350;32;39990;-71
2023/08/22 05:40:28;;;;;;;11.65;8.25;;;;;;;25.45;56.54;100114.31;7764486;32;39951;-68
2023/08/22 05:44:45;;;;;;;13.57;8.05;;;;;;;25.76;55.77;100106.19;7739568;32;37676;-68
2023/08/22 05:49:01;;;;;;;16.08;8.25;;;;;;;26.00;55.11;100121.87;7746562;32;37782;-68
2023/08/22 05:53:17;;;;;;;11.45;7.32;;;;;;;26.18;54.67;100117.47;7755800;32;39835;-70
2023/08/22 05:57:34;;;;;;;12.88;7.32;;;;;;;26.28;54.89;100109.62;7765108;32;39908;-70
2023/08/22 06:01:50;;;;;;;14.27;7.87;;;;;;;26.64;54.26;100107.50;7764995;32;38027;-70
2023/08/22 06:06:06;;;;;;;13.95;8.25;;;;;;;26.71;52.84;100110.44;7746385;32;37034;-70
2023/08/22 06:10:23;;;;;;;15.57;8.07;;;;;;;26.67;52.60;100109.56;7743152;32;38914;-69
2023/08/22 06:14:40;;;;;;;12.07;7.53;;;;;;;26.80;52.44;100113.75;7755001;32;39721;-72
2023/08/22 06:18:56;;;;;;;11.15;7.40;;;;;;;26.80;52.51;100102.59;7750028;32;38701;-71
2023/08/22 06:23:12;;;;;;;14.18;8.15;;;;;;;26.85;53.67;100110.66;7750475;32;37736;-72
2023/08/22 06:27:28;;;;;;;18.52;8.50;;;;;;;26.91;53.18;100113.97;7754366;32;39943;-71
2023/08/22 06:31:45;;;;;;;11.32;7.55;;;;;;;27.08;53.53;100109.81;7759568;32;39579;-71
2023/08/22 06:36:01;;;;;;;12.77;7.60;;;;;;;26.78;53.72;100105.75;7764504;32;38004;-70
2023/08/22 06:40:17;;;;;;;11.10;8.10;;;;;;;26.91;54.04;100111.16;7763836;32;37758;-71
2023/08/22 06:44:34;;;;;;;12.68;8.07;;;;;;;27.19;53.12;100108.00;7747534;32;39281;-72
2023/08/22 06:48:50;;;;;;;14.77;8.27;;;;;;;27.22;53.39;100101.66;7737338;32;41005;-72
2023/08/22 06:53:07;;;;;;;19.15;7.90;;;;;;;27.49;52.86;100101.63;7737314;32;37652;-71
2023/08/22 06:57:23;;;;;;;11.55;7.47;;;;;;;27.37;53.70;100107.47;7737461;32;37924;-71
2023/08/22 07:01:40;;;;;;;10.27;7.47;;;;;;;27.58;53.54;100104.97;7746106;32;39314;-79
2023/08/22 07:05:56;;;;;;;12.05;7.78;;;;;;;27.62;54.41;100094.63;7742620;32;40094;-78
2023/08/22 07:10:12;;;;;;;11.70;7.20;;;;;;;27.75;53.83;100097.16;7751901;32;37762;-78
2023/08/22 07:14:35;;;;;;;11.40;7.78;;;;;;;27.58;53.87;100104.16;7737055;32;37729;-80
2023/08/22 07:18:51;;;;;;;14.30;7.45;;;;;;;27.80;53.09;100099.62;7737470;32;38256;-79
2023/08/22 07:23:07;;;;;;;13.05;6.90;;;;;;;27.54;53.38;100102.13;7745420;32;40133;-79
2023/08/22 07:27:24;;;;;;;13.32;7.90;;;;;;;28.11;52.19;100098.41;7758915;32;38042;-78
2023/08/22 07:31:40;;;;;;;9.77;7.18;;;;;;;28.43;51.35;100098.75;7755975;32;37132;-80
2023/08/22 07:35:56;;;;;;;10.10;7.25;;;;;;;28.93;51.64;100100.41;7756243;32;39765;-81
2023/08/22 07:40:14;;;;;;;12.30;7.55;;;;;;;28.56;51.21;100095.69;7766791;32;39825;-79
2023/08/22 07:44:30;;;;;;;12.90;7.70;;;;;;;29.28;47.85;100090.63;7766604;32;38047;-82
2023/08/22 07:48:46;;;;;;;9.18;7.10;;;;;;;29.51;47.39;100084.72;7758355;32;37730;-83
2023/08/22 07:53:04;;;;;;;14.32;7.45;;;;;;;29.90;47.04;100073.66;7739845;32;39010;-81
2023/08/22 07:57:20;;;;;;;13.02;7.15;;;;;;;30.00;46.02;100079.75;7739706;32;39970;-80
2023/08/22 08:01:36;;;;;;;10.50;7.22;;;;;;;30.34;44.30;100092.25;7739572;32;37724;-81
2023/08/22 08:05:53;;;;;;;10.02;6.37;;;;;;;30.78;44.05;100086.69;7739692;32;36843;-80
2023/08/22 08:10:09;;;;;;;9.43;6.60;;;;;;;31.22;42.29;100088.25;7739390;32;40246;-81
2023/08/22 08:14:26;;;;;;;11.50;6.85;;;;;;;30.90;42.72;100087.06;7739411;32;40760;-80
2023/08/22 08:18:42;;;;;;;11.80;6.80;;;;;;;31.12;41.74;100089.88;7739952;32;38240;-81
2023/08/22 08:22:58;;;;;;;10.02;6.95;;;;;;;31.52;39.92;100092.63;7739471;32;37045;-81
2023/08/22 08:27:14;;;;;;;10.52;6.40;;;;;;;31.60;40.90;100091.41;7739243;32;39313;-81
2023/08/22 08:31:31;;;;;;;12.00;7.07;;;;;;;31.64;41.05;100087.31;7740041;32;39660;-80
2023/08/22 08:35:48;;;;;;;12.00;7.18;;;;;;;32.11;40.34;100081.47;7739118;32;38979;-82
2023/08/22 08:40:08;;;;;;;12.50;7.15;;;;;;;32.49;40.35;100083.63;7738945;32;37292;-81
2023/08/22 08:44:26;;;;;;;10.48;6.82;;;;;;;32.62;40.34;100078.34;7739255;32;39264;-81
2023/08/22 08:48:44;;;;;;;9.75;6.30;;;;;;;32.63;40.92;100083.53;7743301;32;39626;-81
2023/08/22 08:53:00;;;;;;;10.15;6.93;;;;;;;32.71;39.55;100073.00;7765976;32;38767;-80
2023/08/22 08:57:16;;;;;;;12.68;7.20;;;;;;;32.97;39.35;100062.28;7766126;32;37740;-81
2023/08/22 09:01:33;;;;;;;10.95;6.43;;;;;;;33.01;40.64;100057.41;7744589;32;38889;-81
2023/08/22 09:05:49;;;;;;;11.43;6.80;;;;;;;33.30;40.27;100058.72;7752020;32;40722;-79
2023/08/22 09:10:06;;;;;;;9.70;7.25;;;;;;;32.90;40.19;100063.16;7765467;32;37906;-80
2023/08/22 09:14:22;;;;;;;10.20;6.40;;;;;;;33.26;38.97;100063.59;7765727;32;36564;-82
2023/08/22 09:18:42;;;;;;;9.10;6.57;;;;;;;33.43;38.03;100055.34;7765582;32;39896;-81
2023/08/22 09:22:58;;;;;;;9.35;6.50;;;;;;;33.53;37.51;100053.59;7765723;32;40343;-80
2023/08/22 09:27:15;;;;;;;10.30;7.07;;;;;;;33.99;36.87;100053.00;7764123;32;38778;-81
2023/08/22 09:31:33;;;;;;;9.43;6.18;;;;;;;34.36;35.41;100048.44;7765566;32;36907;-80
2023/08/22 09:35:55;;;;;;;11.90;6.68;;;;;;;34.29;36.39;100050.56;7765700;32;38212;-81
2023/08/22 09:40:11;;;;;;;15.85;6.75;;;;;;;33.54;36.90;100039.06;7764315;32;40716;-81
2023/08/22 09:44:29;;;;;;;11.10;7.10;;;;;;;33.78;35.84;100036.34;7765299;32;38761;-80
2023/08/22 09:48:47;;;;;;;11.60;6.85;;;;;;;33.87;37.48;100022.47;7764863;32;37759;-81
2023/08/22 09:53:03;;;;;;;9.82;6.60;;;;;;;34.14;34.93;100024.53;7763762;32;40001;-80
2023/08/22 09:57:20;;;;;;;9.80;6.53;;;;;;;34.19;35.74;100024.03;7765132;32;40742;-80
2023/08/22 10:01:39;;;;;;;12.90;7.07;;;;;;;34.58;33.58;100019.75;7765158;32;37687;-80
2023/08/22 10:05:55;;;;;;;8.93;6.53;;;;;;;34.60;33.95;100018.12;7763804;32;36739;-82
2023/08/22 10:10:12;;;;;;;12.90;7.03;;;;;;;34.61;33.68;100014.03;7763859;32;39199;-80
2023/08/22 10:14:35;;;;;;;9.23;6.43;;;;;;;34.97;33.26;100004.13;7764935;32;40047;-81
2023/08/22 10:19:03;;;;;;;8.70;6.47;;;;;;;35.17;33.11;100010.59;7764870;32;37990;-81
2023/08/22 10:23:44;;;;;;;11.10;7.12;;;;;;;35.62;33.25;100000.78;7764016;32;37762;-81
2023/08/22 10:28:04;;;;;;;9.47;6.27;;;;;;;35.67;30.85;100010.78;7762902;32;39919;-81
2023/08/22 10:32:21;;;;;;;10.02;6.60;;;;;;;35.48;31.76;100007.56;7747773;32;39971;-81
2023/08/22 10:36:57;;;;;;;12.15;6.60;;;;;;;35.59;31.06;100000.84;7754201;32;37945;-80
2023/08/22 10:41:13;;;;;;;8.88;6.62;;;;;;;36.00;30.11;99985.34;7774095;32;37016;-82
2023/08/22 10:45:40;;;;;;;11.05;6.47;;;;;;;36.10;30.55;99992.81;7754910;32;39970;-81
2023/08/22 10:50:00;;;;;;;10.02;6.35;;;;;;;36.10;30.62;99995.66;7738269;32;39967;-81
2023/08/22 10:54:31;;;;;;;8.20;5.90;;;;;;;36.24;31.24;99986.00;7749804;32;37938;-82
2023/08/22 10:58:58;;;;;;;10.65;6.60;;;;;;;36.98;30.29;99978.78;7759195;32;36894;-81
2023/08/22 11:03:15;;;;;;;11.18;6.03;;;;;;;36.75;29.59;99974.16;7739061;32;37522;-81
2023/08/22 11:07:31;;;;;;;8.98;6.05;;;;;;;37.09;30.01;99976.44;7746485;32;40051;-80
2023/08/22 11:11:48;;;;;;;8.95;6.25;;;;;;;37.59;29.92;99971.31;7735376;32;38691;-84
2023/08/22 11:16:11;;;;;;;12.07;6.40;;;;;;;37.92;28.38;99966.22;7734754;32;36971;-85
2023/08/22 11:20:28;;;;;;;8.38;5.75;;;;;;;38.22;26.74;99966.91;7752994;32;40027;-81
2023/08/22 11:24:45;;;;;;;9.15;5.50;;;;;;;37.01;27.23;99972.19;7758529;32;42891;-82
2023/08/22 11:29:07;;;;;;;9.82;6.22;;;;;;;36.83;27.87;99978.41;7745616;32;39412;-82
2023/08/22 11:33:23;;;;;;;12.48;5.93;;;;;;;36.72;28.26;99967.34;7756260;32;37235;-82
2023/08/22 11:37:41;;;;;;;9.32;6.00;;;;;;;36.45;27.48;99968.41;7736590;32;39255;-80
2023/08/22 11:41:59;;;;;;;8.32;5.55;;;;;;;36.45;27.51;99950.59;7744937;32;39976;-82
2023/08/22 11:46:18;;;;;;;9.75;6.20;;;;;;;36.64;28.73;99952.50;7748975;32;38625;-82
2023/08/22 11:50:35;;;;;;;9.05;5.85;;;;;;;36.87;27.60;99947.84;7746576;32;36715;-81
2023/08/22 11:54:52;;;;;;;9.07;5.80;;;;;;;37.69;26.89;99936.09;7748955;32;39887;-82
2023/08/22 11:59:09;;;;;;;9.57;5.75;;;;;;;38.28;26.41;99932.94;7740862;32;40049;-82
2023/08/22 12:03:43;;;;;;;9.35;6.30;;;;;;;38.11;27.03;99935.94;7755920;32;37840;-82
2023/08/22 12:08:15;;;;;;;8.75;5.65;;;;;;;37.83;26.65;99934.03;7736003;32;37616;-85
2023/08/22 12:12:31;;;;;;;;;;;;;;;37.05;27.15;99938.81;7735859;32;38763;-83
2023/08/22 12:16:47;;;;;;;10.38;6.47;;;;;;;36.75;29.21;99926.66;7745512;32;41007;-84
2023/08/22 12:21:04;;;;;;;9.75;5.93;;;;;;;37.49;27.80;99922.06;7743501;32;38702;-85
2023/08/22 12:25:20;;;;;;;11.38;6.20;;;;;;;37.67;26.96;99920.72;7739849;32;37772;-85
2023/08/22 12:29:36;;;;;;;9.70;5.97;;;;;;;37.24;26.74;99922.84;7739155;32;38859;-84
2023/08/22 12:33:52;;;;;;;10.20;6.43;;;;;;;37.45;27.51;99920.59;7739257;32;40883;-85
2023/08/22 12:38:09;;;;;;;9.98;5.95;;;;;;;38.10;27.11;99903.03;7739032;32;38461;-84
2023/08/22 12:42:26;;;;;;;8.30;6.10;;;;;;;38.41;26.00;99896.72;7739339;32;35251;-84
2023/08/22 12:46:42;;;;;;;9.30;5.95;;;;;;;38.65;25.79;99901.97;7738009;32;39976;-84
2023/08/22 12:50:58;;;;;;;11.65;6.53;;;;;;;38.77;26.21;99892.56;7739441;32;38906;-84
2023/08/22 12:55:17;;;;;;;13.55;6.50;;;;;;;38.80;26.08;99888.78;7739085;32;37673;-83
2023/08/22 12:59:35;;;;;;;9.57;5.93;;;;;;;38.54;25.73;99890.16;7738920;32;37997;-84
2023/08/22 13:03:53;;;;;;;8.32;5.95;;;;;;;38.94;25.51;99886.66;7739107;32;38219;-84
2023/08/22 13:08:09;;;;;;;7.95;5.55;;;;;;;38.83;25.06;99884.22;7737613;32;40178;-83
2023/08/22 13:12:25;;;;;;;9.45;5.60;;;;;;;38.23;25.99;99885.16;7738995;32;37455;-84
2023/08/22 13:16:42;;;;;;;9.00;5.10;;;;;;;38.93;24.96;99865.09;7738618;32;36928;-85
2023/08/22 13:20:58;;;;;;;9.68;5.40;;;;;;;39.60;23.71;99873.09;7738812;32;39878;-85
2023/08/22 13:25:16;;;;;;;10.43;5.35;;;;;;;38.90;24.34;99866.06;7738860;32;41274;-84
2023/08/22 13:29:33;;;;;;;10.88;4.85;;;;;;;38.87;24.79;99862.88;7738529;32;36961;-86
2023/08/22 13:33:49;;;;;;;5.05;3.62;;;;;;;38.68;21.85;99861.16;7738508;32;37782;-86
2023/08/22 13:38:05;;;;;;;8.20;3.78;;;;;;;38.12;21.29;99859.91;7738825;32;39195;-85
2023/08/22 13:42:22;;;;;;;5.82;4.00;;;;;;;39.15;20.69;99848.78;7734749;32;39819;-84
2023/08/22 13:46:40;;;;;;;8.70;3.65;;;;;;;38.78;20.33;99848.56;7736544;32;39166;-84
2023/08/22 13:50:58;;;;;;;14.05;3.97;;;;;;;38.60;19.45;99848.44;7737737;32;37660;-84
2023/08/22 13:55:14;;;;;;;5.05;3.70;;;;;;;38.44;21.51;99843.72;7737628;32;40005;-84
2023/08/22 13:59:31;;;;;;;6.43;4.15;;;;;;;38.60;20.41;99848.44;7737777;32;39614;-85
2023/08/22 14:03:47;;;;;;;7.60;3.83;;;;;;;38.84;20.51;99840.22;7737831;32;38053;-86
2023/08/22 14:08:05;;;;;;;8.60;3.72;;;;;;;39.72;20.48;99839.97;7737574;32;37740;-85
2023/08/22 14:12:21;;;;;;;14.15;4.10;;;;;;;39.92;19.44;99830.97;7737857;32;40653;-85
2023/08/22 14:16:38;;;;;;;10.15;3.80;;;;;;;39.11;20.50;99830.25;7737370;32;40034;-84
2023/08/22 14:20:55;;;;;;;6.90;3.90;;;;;;;39.00;21.38;99822.91;7737716;32;37634;-85
2023/08/22 14:25:13;;;;;;;9.40;4.07;;;;;;;38.33;21.12;99827.03;7736311;32;36992;-85
2023/08/22 14:29:29;;;;;;;21.00;5.30;;;;;;;38.99;22.13;99823.38;7737518;32;39934;-85
2023/08/22 14:33:46;;;;;;;6.97;4.05;;;;;;;39.54;20.73;99822.84;7737696;32;39922;-84
2023/08/22 14:38:03;;;;;;;7.65;4.40;;;;;;;40.30;20.84;99811.81;7736458;32;38830;-85
2023/08/22 14:42:19;;;;;;;12.27;4.70;;;;;;;39.27;22.28;99814.97;7737466;32;37755;-84
2023/08/22 14:46:36;;;;;;;9.50;4.57;;;;;;;39.60;22.04;99816.03;7737051;32;39181;-84
2023/08/22 14:50:53;;;;;;;7.12;4.30;;;;;;;39.13;22.92;99822.03;7737172;32;41572;-84
2023/08/22 14:55:11;;;;;;;8.00;5.12;;;;;;;38.28;23.16;99819.09;7736135;32;36525;-85
2023/08/22 14:59:29;;;;;;;6.70;4.45;;;;;;;38.82;22.65;99815.03;7736817;32;36596;-84
2023/08/22 15:03:46;;;;;;;8.75;4.45;;;;;;;38.79;23.37;99821.69;7736880;32;39457;-84
2023/08/22 15:08:04;;;;;;;8.68;4.93;;;;;;;38.67;23.00;99816.84;7736811;32;39651;-84
2023/08/22 15:12:22;;;;;;;8.30;4.53;;;;;;;38.90;23.69;99809.09;7736682;32;37634;-85
2023/08/22 15:16:38;;;;;;;8.35;4.93;;;;;;;39.16;23.23;99818.25;7734988;32;37766;-85
2023/08/22 15:21:01;;;;;;;7.82;4.30;;;;;;;39.05;22.22;99807.25;7736501;32;39348;-85
2023/08/22 15:25:19;;;;;;;8.48;4.47;;;;;;;39.06;23.32;99806.00;7736672;32;41273;-85
2023/08/22 15:29:35;;;;;;;8.88;4.50;;;;;;;39.64;23.05;99807.34;7735885;32;37493;-85
2023/08/22 15:33:52;;;;;;;9.05;4.35;;;;;;;39.65;23.10;99805.25;7736096;32;38427;-86
2023/08/22 15:38:09;;;;;;;11.85;5.20;;;;;;;39.41;22.81;99802.94;7735999;32;39322;-86
2023/08/22 15:42:26;;;;;;;8.82;4.60;;;;;;;39.19;23.46;99798.16;7735825;32;39892;-86
2023/08/22 15:46:44;;;;;;;7.00;4.97;;;;;;;38.99;22.59;99800.56;7735646;32;37783;-85
2023/08/22 15:51:09;;;;;;;7.68;4.78;;;;;;;39.00;23.16;99791.56;7738591;32;36866;-85
2023/08/22 15:55:31;;;;;;;10.10;4.70;;;;;;;38.90;23.83;99794.84;7739218;32;40028;-86
2023/08/22 15:59:50;;;;;;;9.40;4.60;;;;;;;38.77;24.14;99790.00;7739355;32;40797;-85
2023/08/22 16:04:06;;;;;;;7.87;4.32;;;;;;;38.24;23.79;99792.78;7739020;32;38105;-85
2023/08/22 16:08:23;;;;;;;8.32;4.45;;;;;;;38.80;23.44;99786.22;7739203;32;36960;-85
2023/08/22 16:12:39;;;;;;;8.50;4.82;;;;;;;38.92;24.27;99783.75;7739167;32;39312;-85
2023/08/22 16:16:56;;;;;;;7.00;4.70;;;;;;;38.92;24.05;99783.75;7739070;32;39909;-84
2023/08/22 16:21:13;;;;;;;7.90;4.70;;;;;;;38.53;24.86;99775.44;7738756;32;39153;-85
2023/08/22 16:25:29;;;;;;;8.50;4.75;;;;;;;38.53;25.28;99775.44;7739057;32;36918;-85
2023/08/22 16:29:46;;;;;;;9.20;4.90;;;;;;;38.67;24.46;99779.81;7738825;32;39283;-84
2023/08/22 16:34:03;;;;;;;10.23;4.22;;;;;;;38.18;25.86;99777.59;7738463;32;40171;-84
2023/08/22 16:38:27;;;;;;;9.18;5.15;;;;;;;37.28;27.06;99770.06;7738974;32;38680;-85
2023/08/22 16:42:45;;;;;;;11.77;5.30;;;;;;;37.98;25.82;99766.47;7737138;32;37660;-85
2023/08/22 16:47:02;;;;;;;10.18;4.65;;;;;;;37.75;26.65;99768.50;7738885;32;39283;-85
2023/08/22 16:51:19;;;;;;;11.50;4.65;;;;;;;37.27;27.87;99768.44;7738284;32;39994;-85
2023/08/22 16:55:42;;;;;;;10.68;4.87;;;;;;;36.92;28.78;99770.38;7738475;32;37683;-85
2023/08/22 16:59:59;;;;;;;7.00;4.47;;;;;;;36.27;30.80;99770.25;7738345;32;37193;-85
2023/08/22 17:04:17;;;;;;;7.53;4.70;;;;;;;36.18;31.53;99769.28;7738454;32;39271;-85
2023/08/22 17:08:35;;;;;;;9.40;4.50;;;;;;;35.58;32.04;99763.97;7738862;32;39862;-85
2023/08/22 17:12:53;;;;;;;7.40;4.70;;;;;;;35.39;32.27;99772.13;7738087;32;38003;-85
2023/08/22 17:17:10;;;;;;;8.77;4.95;;;;;;;35.92;31.24;99772.78;7754634;32;36783;-85
2023/08/22 17:21:27;;;;;;;7.50;4.22;;;;;;;36.10;31.42;99780.81;7765355;32;39711;-85
2023/08/22 17:25:44;;;;;;;9.38;4.95;;;;;;;36.15;31.54;99776.62;7764984;32;39574;-86
2023/08/22 17:30:03;;;;;;;9.95;5.12;;;;;;;35.99;31.96;99788.03;7765272;32;37659;-86
2023/08/22 17:34:19;;;;;;;8.70;5.43;;;;;;;35.18;33.05;99788.37;7764734;32;36562;-85
2023/08/22 17:38:36;;;;;;;14.02;5.10;;;;;;;34.90;33.82;99783.38;7765776;32;39370;-86
2023/08/22 17:42:52;;;;;;;11.95;5.57;;;;;;;34.45;35.29;99781.88;7764059;32;40997;-86
2023/08/22 17:47:09;;;;;;;18.00;8.63;;;;;;;34.12;35.59;99778.09;7765383;32;37569;-86
2023/08/22 17:51:25;;;;;;;15.40;8.18;;;;;;;33.78;36.50;99787.59;7765188;32;36723;-86
2023/08/22 17:55:42;;;;;;;22.50;8.25;;;;;;;33.59;36.81;99786.28;7765379;32;40028;-87
2023/08/22 17:59:59;;;;;;;11.43;7.12;;;;;;;33.38;37.44;99787.44;7765054;32;40726;-85
2023/08/22 18:04:16;;;;;;;13.00;6.07;;;;;;;33.15;38.12;99797.47;7765282;32;37653;-80
2023/08/22 18:08:33;;;;;;;10.65;6.18;;;;;;;33.24;37.72;99794.13;7765108;32;38590;-84
2023/08/22 18:12:50;;;;;;;13.85;5.53;;;;;;;32.99;38.36;99788.78;7763926;32;39309;-83
2023/08/22 18:17:06;;;;;;;11.00;5.68;;;;;;;32.78;39.33;99798.38;7764823;32;39891;-85
2023/08/22 18:21:23;;;;;;;12.65;5.68;;;;;;;32.63;39.93;99789.28;7764938;32;37955;-85
2023/08/22 18:25:41;;;;;;;9.43;5.65;;;;;;;32.29;40.47;99793.69;7765018;32;36559;-85
2023/08/22 18:29:58;;;;;;;9.50;5.87;;;;;;;32.16;40.70;99796.25;7764116;32;39952;-84
2023/08/22 18:34:14;;;;;;;7.40;5.37;;;;;;;31.91;41.34;99801.28;7748907;32;39919;-85
2023/08/22 18:38:30;;;;;;;8.73;5.97;;;;;;;31.81;41.61;99812.25;7758720;32;38673;-83
2023/08/22 18:42:47;;;;;;;10.15;6.18;;;;;;;31.69;41.69;99807.16;7761971;32;37665;-83
2023/08/22 18:47:03;;;;;;;11.82;5.93;;;;;;;31.65;41.60;99817.66;7738632;32;39270;-83
2023/08/22 18:51:19;;;;;;;11.77;6.12;;;;;;;31.45;41.93;99828.63;7741208;32;40821;-83
2023/08/22 18:55:36;;;;;;;8.80;5.60;;;;;;;31.43;42.01;99829.06;7738010;32;37788;-83
2023/08/22 18:59:52;;;;;;;10.48;5.82;;;;;;;31.21;42.60;99833.22;7753570;32;37037;-84
2023/08/22 19:04:08;;;;;;;8.85;6.25;;;;;;;31.04;43.39;99834.94;7757805;32;40017;-84
2023/08/22 19:08:26;;;;;;;10.82;6.25;;;;;;;30.85;44.06;99844.66;7768125;32;40498;-84
2023/08/22 19:12:46;;;;;;;11.27;5.75;;;;;;;30.80;44.10;99840.25;7781803;32;37931;-83
2023/08/22 19:17:04;;;;;;;13.90;6.65;;;;;;;30.67;43.58;99853.19;7780437;32;35568;-84
2023/08/22 19:21:23;;;;;;;10.00;6.80;;;;;;;30.58;44.00;99859.22;7775575;32;40134;-84
2023/08/22 19:25:47;;;;;;;9.90;6.18;;;;;;;30.39;44.62;99859.66;7766984;32;40812;-82
2023/08/22 19:30:09;;;;;;;11.15;6.40;;;;;;;30.23;45.35;99872.13;7767055;32;39115;-87
2023/08/22 19:34:29;;;;;;;9.05;6.45;;;;;;;30.17;45.52;99867.31;7754191;32;37032;-83
2023/08/22 19:38:45;;;;;;;11.45;6.40;;;;;;;30.12;45.27;99866.53;7740058;32;39389;-81
2023/08/22 19:43:05;;;;;;;10.73;5.87;;;;;;;29.91;46.22;99856.09;7740020;32;40403;-83
2023/08/22 19:47:24;;;;;;;10.07;6.12;;;;;;;29.92;46.09;99849.25;7739810;32;38029;-82
2023/08/22 19:51:41;;;;;;;9.82;6.20;;;;;;;29.93;45.91;99845.25;7739927;32;35989;-82
2023/08/22 19:55:59;;;;;;;9.38;5.95;;;;;;;29.76;45.78;99846.88;7768094;32;40102;-83